sensor_id;sensor_type;location;lat;lon;timestamp;pressure;altitude;pressure_sealevel;temperature;humidity
41078;BME280;26823;42.662;23.352;2024-01-25T00:00:56;156733.78;;;2.38;80.00
41078;BME280;26823;42.662;23.352;2024-01-25T00:03:21;156743.16;;;2.41;79.48
41078;BME280;26823;42.662;23.352;2024-01-25T00:05:47;156743.16;;;2.41;79.25
41078;BME280;26823;42.662;23.352;2024-01-25T00:08:13;156749.88;;;2.44;79.06
41078;BME280;26823;42.662;23.352;2024-01-25T00:10:39;156711.00;;;2.29;79.01
41078;BME280;26823;42.662;23.352;2024-01-25T00:13:04;156765.94;;;2.50;78.85
41078;BME280;26823;42.662;23.352;2024-01-25T00:15:29;156740.47;;;2.40;78.62
41078;BME280;26823;42.662;23.352;2024-01-25T00:17:55;156744.50;;;2.42;77.32
41078;BME280;26823;42.662;23.352;2024-01-25T00:20:22;156724.41;;;2.34;77.62
41078;BME280;26823;42.662;23.352;2024-01-25T00:22:48;156719.06;;;2.32;77.59
41078;BME280;26823;42.662;23.352;2024-01-25T00:25:13;156704.31;;;2.26;77.95
41078;BME280;26823;42.662;23.352;2024-01-25T00:27:39;156711.00;;;2.29;77.48
41078;BME280;26823;42.662;23.352;2024-01-25T00:30:05;156645.38;;;2.04;76.90
41078;BME280;26823;42.662;23.352;2024-01-25T00:32:30;156644.06;;;2.03;77.16
41078;BME280;26823;42.662;23.352;2024-01-25T00:34:56;156694.94;;;2.23;77.07
41078;BME280;26823;42.662;23.352;2024-01-25T00:37:22;156728.47;;;2.36;77.10
41078;BME280;26823;42.662;23.352;2024-01-25T00:39:47;156748.53;;;2.43;76.87
41078;BME280;26823;42.662;23.352;2024-01-25T00:42:14;156763.25;;;2.49;76.66
41078;BME280;26823;42.662;23.352;2024-01-25T00:44:41;156775.34;;;2.54;76.98
41078;BME280;26823;42.662;23.352;2024-01-25T00:47:07;156772.63;;;2.53;77.47
41078;BME280;26823;42.662;23.352;2024-01-25T00:49:33;156757.94;;;2.47;77.76
41078;BME280;26823;42.662;23.352;2024-01-25T00:51:59;156759.25;;;2.48;77.79
41078;BME280;26823;42.662;23.352;2024-01-25T00:54:25;156767.25;;;2.51;77.56
41078;BME280;26823;42.662;23.352;2024-01-25T00:56:51;156784.72;;;2.57;77.35
41078;BME280;26823;42.662;23.352;2024-01-25T00:59:18;156790.03;;;2.59;77.43
41078;BME280;26823;42.662;23.352;2024-01-25T01:01:47;156812.81;;;2.68;76.32
41078;BME280;26823;42.662;23.352;2024-01-25T01:04:16;156799.44;;;2.63;77.22
41078;BME280;26823;42.662;23.352;2024-01-25T01:06:42;156804.81;;;2.65;77.35
41078;BME280;26823;42.662;23.352;2024-01-25T01:09:07;156812.81;;;2.68;77.90
41078;BME280;26823;42.662;23.352;2024-01-25T01:11:33;156812.81;;;2.68;77.35
41078;BME280;26823;42.662;23.352;2024-01-25T01:13:58;156810.13;;;2.67;77.46
41078;BME280;26823;42.662;23.352;2024-01-25T01:16:24;156799.44;;;2.63;78.02
41078;BME280;26823;42.662;23.352;2024-01-25T01:18:49;156768.63;;;2.51;78.22
41078;BME280;26823;42.662;23.352;2024-01-25T01:21:15;156757.94;;;2.47;78.28
41078;BME280;26823;42.662;23.352;2024-01-25T01:23:40;156760.56;;;2.48;78.01
41078;BME280;26823;42.662;23.352;2024-01-25T01:26:07;156757.94;;;2.47;77.43
41078;BME280;26823;42.662;23.352;2024-01-25T01:28:32;156757.94;;;2.47;76.90
41078;BME280;26823;42.662;23.352;2024-01-25T01:30:58;156763.25;;;2.49;77.13
41078;BME280;26823;42.662;23.352;2024-01-25T01:33:23;156788.72;;;2.59;77.28
41078;BME280;26823;42.662;23.352;2024-01-25T01:35:49;156775.34;;;2.54;76.00
41078;BME280;26823;42.662;23.352;2024-01-25T01:38:14;156780.66;;;2.56;76.79
41078;BME280;26823;42.662;23.352;2024-01-25T01:40:39;156784.72;;;2.57;76.98
41078;BME280;26823;42.662;23.352;2024-01-25T01:43:05;156752.56;;;2.45;77.49
41078;BME280;26823;42.662;23.352;2024-01-25T01:45:31;156769.94;;;2.52;76.72
41078;BME280;26823;42.662;23.352;2024-01-25T01:47:56;156756.56;;;2.47;77.46
41078;BME280;26823;42.662;23.352;2024-01-25T01:50:22;156732.47;;;2.37;77.97
41078;BME280;26823;42.662;23.352;2024-01-25T01:52:49;156778.03;;;2.55;77.73
41078;BME280;26823;42.662;23.352;2024-01-25T01:55:16;156784.72;;;2.57;77.36
41078;BME280;26823;42.662;23.352;2024-01-25T01:57:42;156735.16;;;2.38;77.05
41078;BME280;26823;42.662;23.352;2024-01-25T02:00:09;156800.81;;;2.64;77.25
41078;BME280;26823;42.662;23.352;2024-01-25T02:02:35;156832.91;;;2.76;77.09
41078;BME280;26823;42.662;23.352;2024-01-25T02:05:01;156846.31;;;2.81;76.63
41078;BME280;26823;42.662;23.352;2024-01-25T02:07:26;156826.22;;;2.73;76.07
41078;BME280;26823;42.662;23.352;2024-01-25T02:09:52;156885.19;;;2.96;76.47
41078;BME280;26823;42.662;23.352;2024-01-25T02:12:17;156891.88;;;2.99;76.42
41078;BME280;26823;42.662;23.352;2024-01-25T02:14:43;156883.84;;;2.96;76.32
41078;BME280;26823;42.662;23.352;2024-01-25T02:17:08;156871.78;;;2.91;75.95
41078;BME280;26823;42.662;23.352;2024-01-25T02:19:34;156889.19;;;2.98;76.45
41078;BME280;26823;42.662;23.352;2024-01-25T02:22:01;156866.47;;;2.89;76.77
41078;BME280;26823;42.662;23.352;2024-01-25T02:24:26;156828.91;;;2.74;76.88
41078;BME280;26823;42.662;23.352;2024-01-25T02:26:52;156822.22;;;2.72;76.12
41078;BME280;26823;42.662;23.352;2024-01-25T02:29:18;156784.72;;;2.57;76.64
41078;BME280;26823;42.662;23.352;2024-01-25T02:31:44;156779.34;;;2.55;77.26
41078;BME280;26823;42.662;23.352;2024-01-25T02:34:09;156719.06;;;2.32;78.00
41078;BME280;26823;42.662;23.352;2024-01-25T02:36:34;156737.78;;;2.39;77.88
41078;BME280;26823;42.662;23.352;2024-01-25T02:39:00;156756.56;;;2.47;77.94
41078;BME280;26823;42.662;23.352;2024-01-25T02:41:25;156782.03;;;2.56;78.00
41078;BME280;26823;42.662;23.352;2024-01-25T02:43:54;156795.41;;;2.61;78.51
41078;BME280;26823;42.662;23.352;2024-01-25T02:46:19;156794.09;;;2.61;77.88
41078;BME280;26823;42.662;23.352;2024-01-25T02:48:44;156716.38;;;2.31;79.45
41078;BME280;26823;42.662;23.352;2024-01-25T02:51:10;156579.75;;;1.78;81.65
41078;BME280;26823;42.662;23.352;2024-01-25T02:53:35;156577.13;;;1.77;81.65
41078;BME280;26823;42.662;23.352;2024-01-25T02:56:01;156574.44;;;1.76;82.33
41078;BME280;26823;42.662;23.352;2024-01-25T02:58:26;156498.13;;;1.47;83.96
41078;BME280;26823;42.662;23.352;2024-01-25T03:00:51;156547.66;;;1.66;83.75
41078;BME280;26823;42.662;23.352;2024-01-25T03:03:17;156553.00;;;1.68;83.81
41078;BME280;26823;42.662;23.352;2024-01-25T03:05:42;156590.50;;;1.83;82.96
41078;BME280;26823;42.662;23.352;2024-01-25T03:08:08;156610.59;;;1.90;82.76
41078;BME280;26823;42.662;23.352;2024-01-25T03:10:33;156644.06;;;2.03;82.64
41078;BME280;26823;42.662;23.352;2024-01-25T03:12:59;156656.13;;;2.08;82.17
41078;BME280;26823;42.662;23.352;2024-01-25T03:15:24;156694.94;;;2.23;82.91
41078;BME280;26823;42.662;23.352;2024-01-25T03:17:49;156732.47;;;2.37;84.36
41078;BME280;26823;42.662;23.352;2024-01-25T03:20:15;156796.75;;;2.62;85.54
41078;BME280;26823;42.662;23.352;2024-01-25T03:22:40;156881.16;;;2.94;87.37
41078;BME280;26823;42.662;23.352;2024-01-25T03:25:06;156981.72;;;3.33;87.79
41078;BME280;26823;42.662;23.352;2024-01-25T03:27:31;157092.94;;;3.76;87.25
41078;BME280;26823;42.662;23.352;2024-01-25T03:29:57;157210.97;;;4.21;84.80
41078;BME280;26823;42.662;23.352;2024-01-25T03:32:23;157266.00;;;4.43;84.21
41078;BME280;26823;42.662;23.352;2024-01-25T03:34:48;157366.59;;;4.81;83.10
41078;BME280;26823;42.662;23.352;2024-01-25T03:37:14;157414.94;;;5.00;82.04
41078;BME280;26823;42.662;23.352;2024-01-25T03:39:39;157469.97;;;5.21;80.48
41078;BME280;26823;42.662;23.352;2024-01-25T03:42:04;157514.25;;;5.38;79.26
41078;BME280;26823;42.662;23.352;2024-01-25T03:44:30;157524.97;;;5.42;78.88
41078;BME280;26823;42.662;23.352;2024-01-25T03:46:55;157530.38;;;5.44;78.15
41078;BME280;26823;42.662;23.352;2024-01-25T03:49:21;157545.16;;;5.50;78.16
41078;BME280;26823;42.662;23.352;2024-01-25T03:51:48;157586.75;;;5.66;77.56
41078;BME280;26823;42.662;23.352;2024-01-25T03:54:14;157596.16;;;5.69;76.46
41078;BME280;26823;42.662;23.352;2024-01-25T03:56:39;157608.28;;;5.74;75.77
41078;BME280;26823;42.662;23.352;2024-01-25T03:59:05;157624.38;;;5.80;74.82
41078;BME280;26823;42.662;23.352;2024-01-25T04:01:41;157637.81;;;5.85;74.60
41078;BME280;26823;42.662;23.352;2024-01-25T04:04:06;157633.75;;;5.84;73.63
41078;BME280;26823;42.662;23.352;2024-01-25T04:06:33;157637.81;;;5.85;73.37
41078;BME280;26823;42.662;23.352;2024-01-25T04:08:58;157644.53;;;5.88;73.10
41078;BME280;26823;42.662;23.352;2024-01-25T04:11:24;157647.22;;;5.89;72.86
41078;BME280;26823;42.662;23.352;2024-01-25T04:13:49;157641.84;;;5.87;72.37
41078;BME280;26823;42.662;23.352;2024-01-25T04:16:14;157663.28;;;5.95;72.18
41078;BME280;26823;42.662;23.352;2024-01-25T04:18:40;157666.00;;;5.96;71.94
41078;BME280;26823;42.662;23.352;2024-01-25T04:21:05;157666.00;;;5.96;71.93
41078;BME280;26823;42.662;23.352;2024-01-25T04:23:31;157682.16;;;6.02;71.53
41078;BME280;26823;42.662;23.352;2024-01-25T04:25:56;157682.16;;;6.02;71.65
41078;BME280;26823;42.662;23.352;2024-01-25T04:28:21;157690.25;;;6.06;70.83
41078;BME280;26823;42.662;23.352;2024-01-25T04:30:47;157700.97;;;6.10;71.19
41078;BME280;26823;42.662;23.352;2024-01-25T04:33:15;157714.41;;;6.15;71.04
41078;BME280;26823;42.662;23.352;2024-01-25T04:35:41;157703.69;;;6.11;69.84
41078;BME280;26823;42.662;23.352;2024-01-25T04:38:08;157702.31;;;6.10;69.94
41078;BME280;26823;42.662;23.352;2024-01-25T04:40:33;157664.66;;;5.96;69.82
41078;BME280;26823;42.662;23.352;2024-01-25T04:42:59;157682.16;;;6.02;69.94
41078;BME280;26823;42.662;23.352;2024-01-25T04:45:24;157653.94;;;5.92;70.06
41078;BME280;26823;42.662;23.352;2024-01-25T04:47:50;157660.66;;;5.94;69.82
41078;BME280;26823;42.662;23.352;2024-01-25T04:50:15;157628.41;;;5.82;69.44
41078;BME280;26823;42.662;23.352;2024-01-25T04:52:40;157616.31;;;5.77;69.71
41078;BME280;26823;42.662;23.352;2024-01-25T04:55:06;157596.16;;;5.69;69.25
41078;BME280;26823;42.662;23.352;2024-01-25T04:57:32;157543.78;;;5.49;69.99
41078;BME280;26823;42.662;23.352;2024-01-25T04:59:57;157518.28;;;5.39;70.32
41078;BME280;26823;42.662;23.352;2024-01-25T05:02:22;157504.84;;;5.34;70.62
41078;BME280;26823;42.662;23.352;2024-01-25T05:04:48;157487.41;;;5.28;70.99
41078;BME280;26823;42.662;23.352;2024-01-25T05:07:13;157484.72;;;5.27;70.51
41078;BME280;26823;42.662;23.352;2024-01-25T05:09:39;157464.59;;;5.19;71.02
41078;BME280;26823;42.662;23.352;2024-01-25T05:12:04;157436.44;;;5.08;71.58
41078;BME280;26823;42.662;23.352;2024-01-25T05:14:31;157394.81;;;4.92;71.01
41078;BME280;26823;42.662;23.352;2024-01-25T05:16:56;157390.78;;;4.90;71.08
41078;BME280;26823;42.662;23.352;2024-01-25T05:19:22;157385.41;;;4.88;70.71
41078;BME280;26823;42.662;23.352;2024-01-25T05:21:47;157392.13;;;4.91;70.94
41078;BME280;26823;42.662;23.352;2024-01-25T05:24:13;157404.19;;;4.96;70.85
41078;BME280;26823;42.662;23.352;2024-01-25T05:26:38;157397.50;;;4.93;71.50
41078;BME280;26823;42.662;23.352;2024-01-25T05:29:04;157402.84;;;4.95;70.87
41078;BME280;26823;42.662;23.352;2024-01-25T05:31:30;157402.84;;;4.95;70.28
41078;BME280;26823;42.662;23.352;2024-01-25T05:33:55;157424.34;;;5.03;69.67
41078;BME280;26823;42.662;23.352;2024-01-25T05:36:21;157443.13;;;5.11;69.47
41078;BME280;26823;42.662;23.352;2024-01-25T05:38:47;157465.97;;;5.19;68.99
41078;BME280;26823;42.662;23.352;2024-01-25T05:41:12;157482.03;;;5.26;68.59
41078;BME280;26823;42.662;23.352;2024-01-25T05:43:38;157516.94;;;5.39;67.76
41078;BME280;26823;42.662;23.352;2024-01-25T05:46:03;157549.19;;;5.51;67.46
41078;BME280;26823;42.662;23.352;2024-01-25T05:48:29;157543.78;;;5.49;67.53
41078;BME280;26823;42.662;23.352;2024-01-25T05:50:54;157558.59;;;5.55;66.88
41078;BME280;26823;42.662;23.352;2024-01-25T05:53:19;157572.00;;;5.60;66.63
41078;BME280;26823;42.662;23.352;2024-01-25T05:55:46;157553.19;;;5.53;66.46
41078;BME280;26823;42.662;23.352;2024-01-25T05:58:12;157592.16;;;5.68;66.02
41078;BME280;26823;42.662;23.352;2024-01-25T06:00:37;157580.03;;;5.63;66.39
41078;BME280;26823;42.662;23.352;2024-01-25T06:03:04;157589.44;;;5.67;66.61
41078;BME280;26823;42.662;23.352;2024-01-25T06:05:30;157612.28;;;5.76;66.03
41078;BME280;26823;42.662;23.352;2024-01-25T06:07:55;157614.97;;;5.77;66.23
41078;BME280;26823;42.662;23.352;2024-01-25T06:10:21;157631.09;;;5.83;65.59
41078;BME280;26823;42.662;23.352;2024-01-25T06:12:46;157547.81;;;5.51;65.78
41078;BME280;26823;42.662;23.352;2024-01-25T06:15:12;157610.97;;;5.75;66.02
41078;BME280;26823;42.662;23.352;2024-01-25T06:17:37;157600.19;;;5.71;66.25
41078;BME280;26823;42.662;23.352;2024-01-25T06:20:03;157616.31;;;5.77;66.06
41078;BME280;26823;42.662;23.352;2024-01-25T06:22:29;157628.41;;;5.82;66.10
41078;BME280;26823;42.662;23.352;2024-01-25T06:24:54;157600.19;;;5.71;66.36
41078;BME280;26823;42.662;23.352;2024-01-25T06:27:20;157619.00;;;5.78;66.08
41078;BME280;26823;42.662;23.352;2024-01-25T06:29:45;157623.00;;;5.80;66.62
41078;BME280;26823;42.662;23.352;2024-01-25T06:32:11;157619.00;;;5.78;66.75
41078;BME280;26823;42.662;23.352;2024-01-25T06:34:36;157624.38;;;5.80;67.14
41078;BME280;26823;42.662;23.352;2024-01-25T06:37:02;157625.72;;;5.81;66.44
41078;BME280;26823;42.662;23.352;2024-01-25T06:39:27;157631.09;;;5.83;66.70
41078;BME280;26823;42.662;23.352;2024-01-25T06:41:52;157629.72;;;5.82;66.75
41078;BME280;26823;42.662;23.352;2024-01-25T06:44:18;157586.75;;;5.66;66.02
41078;BME280;26823;42.662;23.352;2024-01-25T06:46:44;157657.94;;;5.93;66.12
41078;BME280;26823;42.662;23.352;2024-01-25T06:49:09;157648.53;;;5.90;66.37
41078;BME280;26823;42.662;23.352;2024-01-25T06:51:34;157523.66;;;5.42;66.28
41078;BME280;26823;42.662;23.352;2024-01-25T06:54:00;157667.38;;;5.97;66.23
41078;BME280;26823;42.662;23.352;2024-01-25T06:56:25;157605.56;;;5.73;66.11
41078;BME280;26823;42.662;23.352;2024-01-25T06:58:51;157652.56;;;5.91;66.35
41078;BME280;26823;42.662;23.352;2024-01-25T07:01:22;157659.28;;;5.94;66.62
41078;BME280;26823;42.662;23.352;2024-01-25T07:03:48;157648.53;;;5.90;65.86
41078;BME280;26823;42.662;23.352;2024-01-25T07:06:17;157617.66;;;5.78;67.75
41078;BME280;26823;42.662;23.352;2024-01-25T07:08:43;157668.69;;;5.97;66.27
41078;BME280;26823;42.662;23.352;2024-01-25T07:11:09;157675.44;;;6.00;66.12
41078;BME280;26823;42.662;23.352;2024-01-25T07:13:34;157694.25;;;6.07;65.93
41078;BME280;26823;42.662;23.352;2024-01-25T07:16:00;157657.94;;;5.93;66.32
41078;BME280;26823;42.662;23.352;2024-01-25T07:18:25;157734.56;;;6.23;65.63
41078;BME280;26823;42.662;23.352;2024-01-25T07:20:50;157715.72;;;6.15;64.42
41078;BME280;26823;42.662;23.352;2024-01-25T07:23:17;157727.84;;;6.20;64.87
41078;BME280;26823;42.662;23.352;2024-01-25T07:25:42;157690.25;;;6.06;64.66
41078;BME280;26823;42.662;23.352;2024-01-25T07:28:08;157733.22;;;6.22;64.36
41078;BME280;26823;42.662;23.352;2024-01-25T07:30:33;157730.53;;;6.21;63.99
41078;BME280;26823;42.662;23.352;2024-01-25T07:32:58;157737.25;;;6.24;65.67
41078;BME280;26823;42.662;23.352;2024-01-25T07:35:24;157737.25;;;6.24;63.99
41078;BME280;26823;42.662;23.352;2024-01-25T07:37:49;157706.31;;;6.12;64.59
41078;BME280;26823;42.662;23.352;2024-01-25T07:40:15;157714.41;;;6.15;64.07
41078;BME280;26823;42.662;23.352;2024-01-25T07:42:40;157725.13;;;6.19;64.05
41078;BME280;26823;42.662;23.352;2024-01-25T07:45:06;157718.44;;;6.16;63.94
41078;BME280;26823;42.662;23.352;2024-01-25T07:47:32;157722.44;;;6.18;63.78
41078;BME280;26823;42.662;23.352;2024-01-25T07:49:57;157738.56;;;6.24;64.23
41078;BME280;26823;42.662;23.352;2024-01-25T07:52:23;157762.78;;;6.33;63.73
41078;BME280;26823;42.662;23.352;2024-01-25T07:54:49;157772.16;;;6.37;63.36
41078;BME280;26823;42.662;23.352;2024-01-25T07:57:15;157785.59;;;6.42;62.91
41078;BME280;26823;42.662;23.352;2024-01-25T07:59:40;157804.41;;;6.49;62.70
41078;BME280;26823;42.662;23.352;2024-01-25T08:02:06;157856.81;;;6.69;62.56
41078;BME280;26823;42.662;23.352;2024-01-25T08:04:31;157969.69;;;7.13;60.28
41078;BME280;26823;42.662;23.352;2024-01-25T08:06:56;158004.69;;;7.26;59.15
41078;BME280;26823;42.662;23.352;2024-01-25T08:09:22;157977.78;;;7.16;59.31
41078;BME280;26823;42.662;23.352;2024-01-25T08:11:48;157964.34;;;7.11;58.99
41078;BME280;26823;42.662;23.352;2024-01-25T08:14:13;157915.94;;;6.92;59.45
41078;BME280;26823;42.662;23.352;2024-01-25T08:16:39;157937.47;;;7.00;59.00
41078;BME280;26823;42.662;23.352;2024-01-25T08:19:04;157950.91;;;7.06;59.89
41078;BME280;26823;42.662;23.352;2024-01-25T08:21:30;157949.53;;;7.05;58.81
41078;BME280;26823;42.662;23.352;2024-01-25T08:23:55;157956.25;;;7.08;59.01
41078;BME280;26823;42.662;23.352;2024-01-25T08:26:21;157977.78;;;7.16;58.76
41078;BME280;26823;42.662;23.352;2024-01-25T08:28:46;157944.19;;;7.03;58.19
41078;BME280;26823;42.662;23.352;2024-01-25T08:31:12;157950.91;;;7.06;57.80
41078;BME280;26823;42.662;23.352;2024-01-25T08:33:38;157965.69;;;7.11;57.16
41078;BME280;26823;42.662;23.352;2024-01-25T08:36:09;157980.50;;;7.17;58.09
41078;BME280;26823;42.662;23.352;2024-01-25T08:38:34;157965.69;;;7.11;56.85
41078;BME280;26823;42.662;23.352;2024-01-25T08:41:00;158006.00;;;7.27;57.02
41078;BME280;26823;42.662;23.352;2024-01-25T08:43:25;158028.84;;;7.35;57.17
41078;BME280;26823;42.662;23.352;2024-01-25T08:45:50;158038.28;;;7.39;55.73
41078;BME280;26823;42.662;23.352;2024-01-25T08:48:16;158051.72;;;7.44;55.56
41078;BME280;26823;42.662;23.352;2024-01-25T08:50:41;158042.28;;;7.41;55.11
41078;BME280;26823;42.662;23.352;2024-01-25T08:53:07;157980.50;;;7.17;56.42
41078;BME280;26823;42.662;23.352;2024-01-25T08:55:32;158006.00;;;7.27;55.76
41078;BME280;26823;42.662;23.352;2024-01-25T08:57:58;158027.53;;;7.35;56.38
41078;BME280;26823;42.662;23.352;2024-01-25T09:00:24;158058.44;;;7.47;56.74
41078;BME280;26823;42.662;23.352;2024-01-25T09:02:49;158078.59;;;7.55;55.01
41078;BME280;26823;42.662;23.352;2024-01-25T09:05:15;158082.63;;;7.56;55.27
41078;BME280;26823;42.662;23.352;2024-01-25T09:07:40;158093.41;;;7.60;55.73
41078;BME280;26823;42.662;23.352;2024-01-25T09:10:07;158129.72;;;7.74;55.38
41078;BME280;26823;42.662;23.352;2024-01-25T09:12:34;158155.25;;;7.84;54.73
41078;BME280;26823;42.662;23.352;2024-01-25T09:15:01;158231.94;;;8.13;54.40
41078;BME280;26823;42.662;23.352;2024-01-25T09:17:26;158275.00;;;8.30;54.25
41078;BME280;26823;42.662;23.352;2024-01-25T09:19:52;158296.50;;;8.38;53.29
41078;BME280;26823;42.662;23.352;2024-01-25T09:22:18;158327.50;;;8.50;53.30
41078;BME280;26823;42.662;23.352;2024-01-25T09:24:47;158343.63;;;8.56;52.21
41078;BME280;26823;42.662;23.352;2024-01-25T09:27:13;158350.41;;;8.59;52.85
41078;BME280;26823;42.662;23.352;2024-01-25T09:29:42;158323.44;;;8.48;52.26
41078;BME280;26823;42.662;23.352;2024-01-25T09:32:08;158279.00;;;8.31;52.93
41078;BME280;26823;42.662;23.352;2024-01-25T09:34:34;158270.97;;;8.28;53.50
41078;BME280;26823;42.662;23.352;2024-01-25T09:37:00;158284.41;;;8.33;53.36
41078;BME280;26823;42.662;23.352;2024-01-25T09:39:25;158308.63;;;8.43;52.83
41078;BME280;26823;42.662;23.352;2024-01-25T09:41:51;158308.63;;;8.43;52.72
41078;BME280;26823;42.662;23.352;2024-01-25T09:44:16;158332.88;;;8.52;52.53
41078;BME280;26823;42.662;23.352;2024-01-25T09:46:43;158406.91;;;8.80;52.03
41078;BME280;26823;42.662;23.352;2024-01-25T09:49:09;158405.53;;;8.80;51.84
41078;BME280;26823;42.662;23.352;2024-01-25T09:51:41;158377.31;;;8.69;51.80
41078;BME280;26823;42.662;23.352;2024-01-25T09:54:08;158381.31;;;8.71;52.17
41078;BME280;26823;42.662;23.352;2024-01-25T09:56:34;158393.44;;;8.75;52.27
41078;BME280;26823;42.662;23.352;2024-01-25T09:59:00;158397.47;;;8.77;52.43
41078;BME280;26823;42.662;23.352;2024-01-25T10:01:26;158405.53;;;8.80;52.70
41078;BME280;26823;42.662;23.352;2024-01-25T10:03:52;158393.44;;;8.75;52.67
41078;BME280;26823;42.662;23.352;2024-01-25T10:06:17;158392.09;;;8.75;51.75
41078;BME280;26823;42.662;23.352;2024-01-25T10:08:43;158386.72;;;8.73;52.08
41078;BME280;26823;42.662;23.352;2024-01-25T10:11:09;158379.94;;;8.70;51.95
41078;BME280;26823;42.662;23.352;2024-01-25T10:13:48;158378.63;;;8.70;51.96
41078;BME280;26823;42.662;23.352;2024-01-25T10:16:18;158292.47;;;8.37;52.03
41078;BME280;26823;42.662;23.352;2024-01-25T10:18:46;158390.75;;;8.74;52.54
41078;BME280;26823;42.662;23.352;2024-01-25T10:21:13;158351.72;;;8.59;52.58
41078;BME280;26823;42.662;23.352;2024-01-25T10:23:40;158419.00;;;8.85;52.59
41078;BME280;26823;42.662;23.352;2024-01-25T10:26:07;158431.13;;;8.90;52.70
41078;BME280;26823;42.662;23.352;2024-01-25T10:28:33;158443.25;;;8.94;52.45
41078;BME280;26823;42.662;23.352;2024-01-25T10:31:00;158480.91;;;9.09;52.15
41078;BME280;26823;42.662;23.352;2024-01-25T10:33:27;158572.47;;;9.44;51.33
41078;BME280;26823;42.662;23.352;2024-01-25T10:36:00;158629.03;;;9.66;49.57
41078;BME280;26823;42.662;23.352;2024-01-25T10:38:33;158630.34;;;9.66;49.97
41078;BME280;26823;42.662;23.352;2024-01-25T10:41:04;158569.75;;;9.43;50.59
41078;BME280;26823;42.662;23.352;2024-01-25T10:43:29;158519.97;;;9.24;51.21
41078;BME280;26823;42.662;23.352;2024-01-25T10:45:59;158467.47;;;9.04;51.51
41078;BME280;26823;42.662;23.352;2024-01-25T10:48:25;158470.16;;;9.05;52.62
41078;BME280;26823;42.662;23.352;2024-01-25T10:50:55;158460.72;;;9.01;52.08
41078;BME280;26823;42.662;23.352;2024-01-25T10:53:24;158459.41;;;9.01;52.58
41078;BME280;26823;42.662;23.352;2024-01-25T10:55:50;158478.22;;;9.08;52.35
41078;BME280;26823;42.662;23.352;2024-01-25T10:58:16;158548.19;;;9.35;51.42
41078;BME280;26823;42.662;23.352;2024-01-25T11:00:50;158689.59;;;9.89;50.29
41078;BME280;26823;42.662;23.352;2024-01-25T11:03:17;158746.16;;;10.10;49.15
41078;BME280;26823;42.662;23.352;2024-01-25T11:05:43;158965.88;;;10.95;47.29
41078;BME280;26823;42.662;23.352;2024-01-25T11:08:18;159114.13;;;11.51;47.20
41078;BME280;26823;42.662;23.352;2024-01-25T11:10:49;159076.38;;;11.37;44.41
41078;BME280;26823;42.662;23.352;2024-01-25T11:13:16;159022.47;;;11.16;44.04
41078;BME280;26823;42.662;23.352;2024-01-25T11:15:41;158948.31;;;10.88;45.29
41078;BME280;26823;42.662;23.352;2024-01-25T11:18:08;158895.75;;;10.68;45.88
41078;BME280;26823;42.662;23.352;2024-01-25T11:20:35;158796.00;;;10.29;46.88
41078;BME280;26823;42.662;23.352;2024-01-25T11:23:03;158821.66;;;10.39;47.02
41078;BME280;26823;42.662;23.352;2024-01-25T11:25:34;158755.59;;;10.14;46.65
41078;BME280;26823;42.662;23.352;2024-01-25T11:28:01;158692.31;;;9.90;47.32
41078;BME280;26823;42.662;23.352;2024-01-25T11:30:29;158672.09;;;9.82;47.50
41078;BME280;26823;42.662;23.352;2024-01-25T11:32:55;158623.63;;;9.63;48.26
41078;BME280;26823;42.662;23.352;2024-01-25T11:35:21;158569.75;;;9.43;48.20
41078;BME280;26823;42.662;23.352;2024-01-25T11:37:47;158553.59;;;9.37;48.06
41078;BME280;26823;42.662;23.352;2024-01-25T11:40:15;158475.50;;;9.07;48.58
41078;BME280;26823;42.662;23.352;2024-01-25T11:42:45;158452.63;;;8.98;50.51
41078;BME280;26823;42.662;23.352;2024-01-25T11:45:11;158371.91;;;8.67;50.09
41078;BME280;26823;42.662;23.352;2024-01-25T11:47:37;158367.88;;;8.65;50.09
41078;BME280;26823;42.662;23.352;2024-01-25T11:50:05;158340.97;;;8.55;50.45
41078;BME280;26823;42.662;23.352;2024-01-25T11:52:31;158305.91;;;8.42;51.06
41078;BME280;26823;42.662;23.352;2024-01-25T11:55:08;158293.78;;;8.37;50.93
41078;BME280;26823;42.662;23.352;2024-01-25T11:57:38;158252.13;;;8.21;50.98
41078;BME280;26823;42.662;23.352;2024-01-25T12:00:07;158252.13;;;8.21;51.30
41078;BME280;26823;42.662;23.352;2024-01-25T12:02:35;158248.09;;;8.20;51.69
41078;BME280;26823;42.662;23.352;2024-01-25T12:05:02;158250.75;;;8.21;52.65
41078;BME280;26823;42.662;23.352;2024-01-25T12:07:30;158252.13;;;8.21;51.19
41078;BME280;26823;42.662;23.352;2024-01-25T12:10:01;158253.44;;;8.22;52.60
41078;BME280;26823;42.662;23.352;2024-01-25T12:12:27;158246.72;;;8.19;52.31
41078;BME280;26823;42.662;23.352;2024-01-25T12:14:57;158252.13;;;8.21;51.53
41078;BME280;26823;42.662;23.352;2024-01-25T12:17:23;158268.25;;;8.27;52.08
41078;BME280;26823;42.662;23.352;2024-01-25T12:19:48;158250.75;;;8.21;52.54
41078;BME280;26823;42.662;23.352;2024-01-25T12:22:20;158230.56;;;8.13;51.31
41078;BME280;26823;42.662;23.352;2024-01-25T12:24:45;158270.97;;;8.28;51.57
41078;BME280;26823;42.662;23.352;2024-01-25T12:27:11;158261.53;;;8.25;51.44
41078;BME280;26823;42.662;23.352;2024-01-25T12:29:36;158284.41;;;8.33;51.14
41078;BME280;26823;42.662;23.352;2024-01-25T12:32:02;158447.28;;;8.96;49.75
41078;BME280;26823;42.662;23.352;2024-01-25T12:34:28;158651.91;;;9.74;47.86
41078;BME280;26823;42.662;23.352;2024-01-25T12:36:53;158748.88;;;10.11;46.31
41078;BME280;26823;42.662;23.352;2024-01-25T12:39:19;158940.25;;;10.85;44.92
41078;BME280;26823;42.662;23.352;2024-01-25T12:41:45;158994.16;;;11.05;43.12
41078;BME280;26823;42.662;23.352;2024-01-25T12:44:10;159044.00;;;11.24;42.89